sensor_id;sensor_type;location;lat;lon;timestamp;P1;durP1;ratioP1;P2;durP2;ratioP2
23617;SDS011;18207;32.078;34.818;2024-01-30T00:01:19;0.40;;;0.40;;
23617;SDS011;18207;32.078;34.818;2024-01-30T00:03:49;0.50;;;0.30;;
23617;SDS011;18207;32.078;34.818;2024-01-30T00:06:21;0.25;;;0.25;;
23617;SDS011;18207;32.078;34.818;2024-01-30T00:08:50;0.98;;;0.38;;
23617;SDS011;18207;32.078;34.818;2024-01-30T00:11:20;0.40;;;0.30;;
23617;SDS011;18207;32.078;34.818;2024-01-30T00:13:52;0.28;;;0.20;;
23617;SDS011;18207;32.078;34.818;2024-01-30T00:16:23;0.25;;;0.20;;
23617;SDS011;18207;32.078;34.818;2024-01-30T00:18:55;0.68;;;0.47;;
23617;SDS011;18207;32.078;34.818;2024-01-30T00:21:26;0.60;;;0.50;;
23617;SDS011;18207;32.078;34.818;2024-01-30T00:23:55;0.20;;;0.20;;
23617;SDS011;18207;32.078;34.818;2024-01-30T00:26:25;0.30;;;0.30;;
23617;SDS011;18207;32.078;34.818;2024-01-30T00:28:54;0.20;;;0.20;;
23617;SDS011;18207;32.078;34.818;2024-01-30T00:31:24;0.85;;;0.35;;
23617;SDS011;18207;32.078;34.818;2024-01-30T00:33:55;0.75;;;0.50;;
23617;SDS011;18207;32.078;34.818;2024-01-30T00:36:25;0.40;;;0.20;;
23617;SDS011;18207;32.078;34.818;2024-01-30T00:38:56;0.68;;;0.20;;
23617;SDS011;18207;32.078;34.818;2024-01-30T00:41:26;0.10;;;0.10;;
23617;SDS011;18207;32.078;34.818;2024-01-30T00:43:55;0.60;;;0.40;;
23617;SDS011;18207;32.078;34.818;2024-01-30T00:46:25;0.65;;;0.30;;
23617;SDS011;18207;32.078;34.818;2024-01-30T00:48:56;0.15;;;0.10;;
23617;SDS011;18207;32.078;34.818;2024-01-30T00:51:27;0.20;;;0.17;;
23617;SDS011;18207;32.078;34.818;2024-01-30T00:53:57;0.50;;;0.17;;
23617;SDS011;18207;32.078;34.818;2024-01-30T00:56:27;0.13;;;0.10;;
23617;SDS011;18207;32.078;34.818;2024-01-30T00:58:57;0.43;;;0.30;;
23617;SDS011;18207;32.078;34.818;2024-01-30T01:01:27;0.30;;;0.30;;
23617;SDS011;18207;32.078;34.818;2024-01-30T01:03:58;0.30;;;0.20;;
23617;SDS011;18207;32.078;34.818;2024-01-30T01:06:28;0.35;;;0.35;;
23617;SDS011;18207;32.078;34.818;2024-01-30T01:08:57;0.30;;;0.30;;
23617;SDS011;18207;32.078;34.818;2024-01-30T01:11:30;0.50;;;0.50;;
23617;SDS011;18207;32.078;34.818;2024-01-30T01:14:00;0.43;;;0.30;;
23617;SDS011;18207;32.078;34.818;2024-01-30T01:16:30;0.40;;;0.40;;
23617;SDS011;18207;32.078;34.818;2024-01-30T01:19:01;0.40;;;0.40;;
23617;SDS011;18207;32.078;34.818;2024-01-30T01:21:31;0.68;;;0.68;;
23617;SDS011;18207;32.078;34.818;2024-01-30T01:24:01;0.35;;;0.35;;
23617;SDS011;18207;32.078;34.818;2024-01-30T01:26:33;0.82;;;0.40;;
23617;SDS011;18207;32.078;34.818;2024-01-30T01:29:02;0.90;;;0.65;;
23617;SDS011;18207;32.078;34.818;2024-01-30T01:31:36;0.50;;;0.50;;
23617;SDS011;18207;32.078;34.818;2024-01-30T01:34:12;0.40;;;0.40;;
23617;SDS011;18207;32.078;34.818;2024-01-30T01:36:42;0.40;;;0.40;;
23617;SDS011;18207;32.078;34.818;2024-01-30T01:39:12;0.50;;;0.50;;
23617;SDS011;18207;32.078;34.818;2024-01-30T01:41:41;0.55;;;0.50;;
23617;SDS011;18207;32.078;34.818;2024-01-30T01:44:11;0.30;;;0.30;;
23617;SDS011;18207;32.078;34.818;2024-01-30T01:46:41;0.38;;;0.38;;
23617;SDS011;18207;32.078;34.818;2024-01-30T01:49:12;0.55;;;0.55;;
23617;SDS011;18207;32.078;34.818;2024-01-30T01:51:43;0.55;;;0.55;;
23617;SDS011;18207;32.078;34.818;2024-01-30T01:54:22;0.73;;;0.73;;
23617;SDS011;18207;32.078;34.818;2024-01-30T01:56:54;1.02;;;0.90;;
23617;SDS011;18207;32.078;34.818;2024-01-30T01:59:24;0.85;;;0.85;;
23617;SDS011;18207;32.078;34.818;2024-01-30T02:01:55;0.77;;;0.77;;
23617;SDS011;18207;32.078;34.818;2024-01-30T02:04:27;1.08;;;0.98;;
23617;SDS011;18207;32.078;34.818;2024-01-30T02:06:56;0.73;;;0.73;;
23617;SDS011;18207;32.078;34.818;2024-01-30T02:09:27;0.77;;;0.77;;
23617;SDS011;18207;32.078;34.818;2024-01-30T02:11:56;0.80;;;0.80;;
23617;SDS011;18207;32.078;34.818;2024-01-30T02:14:26;0.70;;;0.70;;
23617;SDS011;18207;32.078;34.818;2024-01-30T02:16:57;0.70;;;0.70;;
23617;SDS011;18207;32.078;34.818;2024-01-30T02:19:28;0.60;;;0.60;;
23617;SDS011;18207;32.078;34.818;2024-01-30T02:22:00;0.60;;;0.60;;
23617;SDS011;18207;32.078;34.818;2024-01-30T02:24:30;0.63;;;0.50;;
23617;SDS011;18207;32.078;34.818;2024-01-30T02:27:00;0.70;;;0.70;;
23617;SDS011;18207;32.078;34.818;2024-01-30T02:29:29;0.82;;;0.82;;
23617;SDS011;18207;32.078;34.818;2024-01-30T02:31:59;0.65;;;0.65;;
23617;SDS011;18207;32.078;34.818;2024-01-30T02:34:28;0.43;;;0.43;;
23617;SDS011;18207;32.078;34.818;2024-01-30T02:37:00;0.45;;;0.32;;
23617;SDS011;18207;32.078;34.818;2024-01-30T02:39:29;0.88;;;0.88;;
23617;SDS011;18207;32.078;34.818;2024-01-30T02:41:59;0.75;;;0.75;;
23617;SDS011;18207;32.078;34.818;2024-01-30T02:44:28;0.88;;;0.88;;
23617;SDS011;18207;32.078;34.818;2024-01-30T02:46:58;1.35;;;1.02;;
23617;SDS011;18207;32.078;34.818;2024-01-30T02:49:28;1.30;;;1.20;;
23617;SDS011;18207;32.078;34.818;2024-01-30T02:51:57;1.40;;;1.35;;
23617;SDS011;18207;32.078;34.818;2024-01-30T02:54:29;1.58;;;1.15;;
23617;SDS011;18207;32.078;34.818;2024-01-30T02:56:59;1.35;;;1.25;;
23617;SDS011;18207;32.078;34.818;2024-01-30T02:59:42;1.30;;;1.20;;
23617;SDS011;18207;32.078;34.818;2024-01-30T03:02:11;1.10;;;1.10;;
23617;SDS011;18207;32.078;34.818;2024-01-30T03:04:40;1.52;;;1.42;;
23617;SDS011;18207;32.078;34.818;2024-01-30T03:07:12;1.60;;;1.50;;
23617;SDS011;18207;32.078;34.818;2024-01-30T03:09:42;1.23;;;1.13;;
23617;SDS011;18207;32.078;34.818;2024-01-30T03:12:12;1.85;;;1.40;;
23617;SDS011;18207;32.078;34.818;2024-01-30T03:14:42;1.30;;;1.20;;
23617;SDS011;18207;32.078;34.818;2024-01-30T03:17:11;1.50;;;1.40;;
23617;SDS011;18207;32.078;34.818;2024-01-30T03:19:41;1.55;;;1.45;;
23617;SDS011;18207;32.078;34.818;2024-01-30T03:22:13;1.50;;;1.40;;
23617;SDS011;18207;32.078;34.818;2024-01-30T03:24:43;1.73;;;1.63;;
23617;SDS011;18207;32.078;34.818;2024-01-30T03:27:12;2.20;;;1.42;;
23617;SDS011;18207;32.078;34.818;2024-01-30T03:29:42;1.70;;;1.60;;
23617;SDS011;18207;32.078;34.818;2024-01-30T03:32:12;1.55;;;1.48;;
23617;SDS011;18207;32.078;34.818;2024-01-30T03:34:42;1.60;;;1.50;;
23617;SDS011;18207;32.078;34.818;2024-01-30T03:37:27;1.85;;;1.65;;
23617;SDS011;18207;32.078;34.818;2024-01-30T03:39:57;1.40;;;1.30;;
23617;SDS011;18207;32.078;34.818;2024-01-30T03:42:26;1.30;;;1.20;;
23617;SDS011;18207;32.078;34.818;2024-01-30T03:44:56;1.60;;;1.50;;
23617;SDS011;18207;32.078;34.818;2024-01-30T03:47:25;1.20;;;1.10;;
23617;SDS011;18207;32.078;34.818;2024-01-30T03:49:55;1.52;;;1.40;;
23617;SDS011;18207;32.078;34.818;2024-01-30T03:52:27;1.00;;;0.90;;
23617;SDS011;18207;32.078;34.818;2024-01-30T03:54:57;0.98;;;0.98;;
23617;SDS011;18207;32.078;34.818;2024-01-30T03:57:26;1.20;;;1.10;;
23617;SDS011;18207;32.078;34.818;2024-01-30T03:59:56;1.25;;;1.08;;
23617;SDS011;18207;32.078;34.818;2024-01-30T04:02:29;1.23;;;0.85;;
23617;SDS011;18207;32.078;34.818;2024-01-30T04:04:58;1.20;;;0.90;;
23617;SDS011;18207;32.078;34.818;2024-01-30T04:07:30;1.20;;;1.00;;
23617;SDS011;18207;32.078;34.818;2024-01-30T04:09:59;1.15;;;1.15;;
23617;SDS011;18207;32.078;34.818;2024-01-30T04:12:32;1.23;;;1.17;;
23617;SDS011;18207;32.078;34.818;2024-01-30T04:15:02;1.23;;;1.13;;
23617;SDS011;18207;32.078;34.818;2024-01-30T04:17:32;1.30;;;1.20;;
23617;SDS011;18207;32.078;34.818;2024-01-30T04:20:02;1.35;;;1.25;;
23617;SDS011;18207;32.078;34.818;2024-01-30T04:22:35;1.30;;;1.20;;
23617;SDS011;18207;32.078;34.818;2024-01-30T04:25:05;1.35;;;1.15;;
23617;SDS011;18207;32.078;34.818;2024-01-30T04:27:35;0.95;;;0.95;;
23617;SDS011;18207;32.078;34.818;2024-01-30T04:30:05;1.25;;;1.15;;
23617;SDS011;18207;32.078;34.818;2024-01-30T04:32:36;1.55;;;1.27;;
23617;SDS011;18207;32.078;34.818;2024-01-30T04:35:06;1.40;;;1.30;;
23617;SDS011;18207;32.078;34.818;2024-01-30T04:37:39;2.03;;;1.30;;
23617;SDS011;18207;32.078;34.818;2024-01-30T04:40:22;1.02;;;1.02;;
23617;SDS011;18207;32.078;34.818;2024-01-30T04:42:52;1.45;;;1.00;;
23617;SDS011;18207;32.078;34.818;2024-01-30T04:45:21;0.80;;;0.80;;
23617;SDS011;18207;32.078;34.818;2024-01-30T04:47:51;0.90;;;0.75;;
23617;SDS011;18207;32.078;34.818;2024-01-30T04:50:21;0.70;;;0.70;;
23617;SDS011;18207;32.078;34.818;2024-01-30T04:52:53;0.75;;;0.68;;
23617;SDS011;18207;32.078;34.818;2024-01-30T04:55:22;0.68;;;0.65;;
23617;SDS011;18207;32.078;34.818;2024-01-30T04:57:52;0.88;;;0.57;;
23617;SDS011;18207;32.078;34.818;2024-01-30T05:00:21;0.85;;;0.55;;
23617;SDS011;18207;32.078;34.818;2024-01-30T05:02:51;0.68;;;0.68;;
23617;SDS011;18207;32.078;34.818;2024-01-30T05:05:21;0.75;;;0.50;;
23617;SDS011;18207;32.078;34.818;2024-01-30T05:07:50;0.50;;;0.45;;
23617;SDS011;18207;32.078;34.818;2024-01-30T05:10:22;1.05;;;0.50;;
23617;SDS011;18207;32.078;34.818;2024-01-30T05:12:51;0.50;;;0.50;;
23617;SDS011;18207;32.078;34.818;2024-01-30T05:15:21;0.38;;;0.38;;
23617;SDS011;18207;32.078;34.818;2024-01-30T05:17:50;0.65;;;0.40;;
23617;SDS011;18207;32.078;34.818;2024-01-30T05:20:20;0.95;;;0.70;;
23617;SDS011;18207;32.078;34.818;2024-01-30T05:22:50;0.60;;;0.60;;
23617;SDS011;18207;32.078;34.818;2024-01-30T05:25:21;0.63;;;0.60;;
23617;SDS011;18207;32.078;34.818;2024-01-30T05:27:51;1.17;;;0.70;;
23617;SDS011;18207;32.078;34.818;2024-01-30T05:30:22;1.00;;;0.90;;
23617;SDS011;18207;32.078;34.818;2024-01-30T05:32:52;0.60;;;0.60;;
23617;SDS011;18207;32.078;34.818;2024-01-30T05:35:21;0.65;;;0.65;;
23617;SDS011;18207;32.078;34.818;2024-01-30T05:37:53;1.08;;;0.98;;
23617;SDS011;18207;32.078;34.818;2024-01-30T05:40:22;0.70;;;0.70;;
23617;SDS011;18207;32.078;34.818;2024-01-30T05:42:52;0.90;;;0.85;;
23617;SDS011;18207;32.078;34.818;2024-01-30T05:45:22;1.08;;;0.98;;
23617;SDS011;18207;32.078;34.818;2024-01-30T05:47:52;0.60;;;0.60;;
23617;SDS011;18207;32.078;34.818;2024-01-30T05:50:22;0.80;;;0.77;;
23617;SDS011;18207;32.078;34.818;2024-01-30T05:52:55;1.40;;;0.80;;
23617;SDS011;18207;32.078;34.818;2024-01-30T05:55:25;0.80;;;0.70;;
23617;SDS011;18207;32.078;34.818;2024-01-30T05:57:54;0.80;;;0.80;;
23617;SDS011;18207;32.078;34.818;2024-01-30T06:00:24;1.55;;;0.77;;
23617;SDS011;18207;32.078;34.818;2024-01-30T06:02:54;0.60;;;0.60;;
23617;SDS011;18207;32.078;34.818;2024-01-30T06:05:23;0.75;;;0.65;;
23617;SDS011;18207;32.078;34.818;2024-01-30T06:07:55;0.70;;;0.70;;
23617;SDS011;18207;32.078;34.818;2024-01-30T06:10:24;0.60;;;0.60;;
23617;SDS011;18207;32.078;34.818;2024-01-30T06:12:54;0.63;;;0.60;;
23617;SDS011;18207;32.078;34.818;2024-01-30T06:15:23;1.02;;;0.80;;
23617;SDS011;18207;32.078;34.818;2024-01-30T06:17:53;0.85;;;0.65;;
23617;SDS011;18207;32.078;34.818;2024-01-30T06:20:23;1.63;;;1.00;;
23617;SDS011;18207;32.078;34.818;2024-01-30T06:22:53;1.30;;;0.73;;
23617;SDS011;18207;32.078;34.818;2024-01-30T06:25:24;2.13;;;0.80;;
23617;SDS011;18207;32.078;34.818;2024-01-30T06:27:54;1.25;;;0.80;;
23617;SDS011;18207;32.078;34.818;2024-01-30T06:30:24;0.60;;;0.60;;
23617;SDS011;18207;32.078;34.818;2024-01-30T06:32:53;0.43;;;0.40;;
23617;SDS011;18207;32.078;34.818;2024-01-30T06:35:24;0.75;;;0.68;;
23617;SDS011;18207;32.078;34.818;2024-01-30T06:37:57;0.60;;;0.60;;
23617;SDS011;18207;32.078;34.818;2024-01-30T06:40:27;0.80;;;0.57;;
23617;SDS011;18207;32.078;34.818;2024-01-30T06:42:56;1.13;;;0.60;;
23617;SDS011;18207;32.078;34.818;2024-01-30T06:45:26;1.02;;;0.98;;
23617;SDS011;18207;32.078;34.818;2024-01-30T06:47:56;0.77;;;0.77;;
23617;SDS011;18207;32.078;34.818;2024-01-30T06:50:25;0.73;;;0.68;;
23617;SDS011;18207;32.078;34.818;2024-01-30T06:52:57;0.70;;;0.70;;
23617;SDS011;18207;32.078;34.818;2024-01-30T06:55:27;1.30;;;0.80;;
23617;SDS011;18207;32.078;34.818;2024-01-30T06:57:56;1.45;;;1.00;;
23617;SDS011;18207;32.078;34.818;2024-01-30T07:00:26;1.27;;;1.00;;
23617;SDS011;18207;32.078;34.818;2024-01-30T07:02:56;0.77;;;0.77;;
23617;SDS011;18207;32.078;34.818;2024-01-30T07:05:25;1.23;;;0.82;;
23617;SDS011;18207;32.078;34.818;2024-01-30T07:07:55;1.00;;;0.90;;
23617;SDS011;18207;32.078;34.818;2024-01-30T07:10:26;1.27;;;0.75;;
23617;SDS011;18207;32.078;34.818;2024-01-30T07:12:56;1.13;;;0.70;;
23617;SDS011;18207;32.078;34.818;2024-01-30T07:15:26;1.63;;;0.75;;
23617;SDS011;18207;32.078;34.818;2024-01-30T07:17:55;0.88;;;0.60;;
23617;SDS011;18207;32.078;34.818;2024-01-30T07:20:25;1.98;;;0.80;;
23617;SDS011;18207;32.078;34.818;2024-01-30T07:22:58;1.23;;;0.80;;
23617;SDS011;18207;32.078;34.818;2024-01-30T07:25:29;1.58;;;0.80;;
23617;SDS011;18207;32.078;34.818;2024-01-30T07:27:58;0.90;;;0.80;;
23617;SDS011;18207;32.078;34.818;2024-01-30T07:30:28;0.95;;;0.88;;
23617;SDS011;18207;32.078;34.818;2024-01-30T07:32:57;0.90;;;0.90;;
23617;SDS011;18207;32.078;34.818;2024-01-30T07:35:27;1.95;;;0.85;;
23617;SDS011;18207;32.078;34.818;2024-01-30T07:37:57;1.20;;;1.00;;
23617;SDS011;18207;32.078;34.818;2024-01-30T07:40:28;1.10;;;1.00;;
23617;SDS011;18207;32.078;34.818;2024-01-30T07:43:00;1.05;;;0.95;;
23617;SDS011;18207;32.078;34.818;2024-01-30T07:45:30;1.02;;;0.90;;
23617;SDS011;18207;32.078;34.818;2024-01-30T07:48:00;1.30;;;0.90;;
23617;SDS011;18207;32.078;34.818;2024-01-30T07:50:30;0.95;;;0.82;;
23617;SDS011;18207;32.078;34.818;2024-01-30T07:53:02;0.90;;;0.73;;
23617;SDS011;18207;32.078;34.818;2024-01-30T07:55:32;2.28;;;1.00;;
23617;SDS011;18207;32.078;34.818;2024-01-30T07:58:02;1.38;;;0.88;;
23617;SDS011;18207;32.078;34.818;2024-01-30T08:00:32;1.00;;;0.90;;
23617;SDS011;18207;32.078;34.818;2024-01-30T08:03:01;1.13;;;0.80;;
23617;SDS011;18207;32.078;34.818;2024-01-30T08:05:31;1.38;;;0.90;;
23617;SDS011;18207;32.078;34.818;2024-01-30T08:08:03;0.95;;;0.80;;
23617;SDS011;18207;32.078;34.818;2024-01-30T08:10:33;1.23;;;0.98;;
23617;SDS011;18207;32.078;34.818;2024-01-30T08:13:03;0.85;;;0.85;;
23617;SDS011;18207;32.078;34.818;2024-01-30T08:15:36;0.93;;;0.80;;
23617;SDS011;18207;32.078;34.818;2024-01-30T08:18:06;1.40;;;0.98;;
23617;SDS011;18207;32.078;34.818;2024-01-30T08:20:36;1.30;;;1.00;;
23617;SDS011;18207;32.078;34.818;2024-01-30T08:23:08;1.23;;;1.08;;
23617;SDS011;18207;32.078;34.818;2024-01-30T08:25:37;1.27;;;1.00;;
23617;SDS011;18207;32.078;34.818;2024-01-30T08:28:07;1.42;;;1.30;;
23617;SDS011;18207;32.078;34.818;2024-01-30T08:30:37;1.80;;;1.10;;
23617;SDS011;18207;32.078;34.818;2024-01-30T08:33:06;1.30;;;1.20;;
23617;SDS011;18207;32.078;34.818;2024-01-30T08:35:36;1.63;;;1.17;;
23617;SDS011;18207;32.078;34.818;2024-01-30T08:38:06;1.55;;;1.10;;
23617;SDS011;18207;32.078;34.818;2024-01-30T08:40:39;0.95;;;0.93;;
23617;SDS011;18207;32.078;34.818;2024-01-30T08:43:15;1.80;;;1.20;;
23617;SDS011;18207;32.078;34.818;2024-01-30T08:45:45;1.50;;;1.10;;
23617;SDS011;18207;32.078;34.818;2024-01-30T08:48:14;1.10;;;0.95;;
23617;SDS011;18207;32.078;34.818;2024-01-30T08:50:44;1.05;;;0.98;;
23617;SDS011;18207;32.078;34.818;2024-01-30T08:53:16;1.83;;;1.15;;
23617;SDS011;18207;32.078;34.818;2024-01-30T08:55:46;1.67;;;1.20;;
23617;SDS011;18207;32.078;34.818;2024-01-30T08:58:15;1.30;;;1.20;;
23617;SDS011;18207;32.078;34.818;2024-01-30T09:00:46;0.95;;;0.85;;
23617;SDS011;18207;32.078;34.818;2024-01-30T09:03:16;0.95;;;0.85;;
23617;SDS011;18207;32.078;34.818;2024-01-30T09:05:46;1.20;;;1.00;;
23617;SDS011;18207;32.078;34.818;2024-01-30T09:08:17;1.15;;;0.80;;
23617;SDS011;18207;32.078;34.818;2024-01-30T09:10:47;1.40;;;0.93;;
23617;SDS011;18207;32.078;34.818;2024-01-30T09:13:20;0.82;;;0.57;;
23617;SDS011;18207;32.078;34.818;2024-01-30T09:15:50;1.27;;;0.98;;
23617;SDS011;18207;32.078;34.818;2024-01-30T09:18:20;0.60;;;0.55;;
23617;SDS011;18207;32.078;34.818;2024-01-30T09:20:49;0.82;;;0.63;;
23617;SDS011;18207;32.078;34.818;2024-01-30T09:23:21;0.98;;;0.70;;
23617;SDS011;18207;32.078;34.818;2024-01-30T09:25:50;0.70;;;0.52;;
23617;SDS011;18207;32.078;34.818;2024-01-30T09:28:20;0.60;;;0.60;;
23617;SDS011;18207;32.078;34.818;2024-01-30T09:30:53;0.80;;;0.52;;
23617;SDS011;18207;32.078;34.818;2024-01-30T09:33:23;1.48;;;0.90;;
23617;SDS011;18207;32.078;34.818;2024-01-30T09:35:54;0.47;;;0.47;;
23617;SDS011;18207;32.078;34.818;2024-01-30T09:38:25;2.55;;;1.00;;
23617;SDS011;18207;32.078;34.818;2024-01-30T09:40:55;0.90;;;0.80;;
23617;SDS011;18207;32.078;34.818;2024-01-30T09:43:27;1.10;;;0.70;;
23617;SDS011;18207;32.078;34.818;2024-01-30T09:46:02;1.65;;;0.80;;
23617;SDS011;18207;32.078;34.818;2024-01-30T09:48:33;0.80;;;0.77;;
23617;SDS011;18207;32.078;34.818;2024-01-30T09:51:04;0.55;;;0.50;;
23617;SDS011;18207;32.078;34.818;2024-01-30T09:53:37;1.15;;;0.80;;
23617;SDS011;18207;32.078;34.818;2024-01-30T09:56:10;1.20;;;0.73;;
23617;SDS011;18207;32.078;34.818;2024-01-30T09:58:41;0.75;;;0.50;;
23617;SDS011;18207;32.078;34.818;2024-01-30T10:01:10;0.90;;;0.65;;
23617;SDS011;18207;32.078;34.818;2024-01-30T10:03:40;0.85;;;0.65;;
23617;SDS011;18207;32.078;34.818;2024-01-30T10:06:10;0.68;;;0.57;;
23617;SDS011;18207;32.078;34.818;2024-01-30T10:08:42;0.77;;;0.77;;
23617;SDS011;18207;32.078;34.818;2024-01-30T10:11:11;0.98;;;0.68;;
23617;SDS011;18207;32.078;34.818;2024-01-30T10:13:41;0.82;;;0.70;;
23617;SDS011;18207;32.078;34.818;2024-01-30T10:16:13;0.95;;;0.60;;
23617;SDS011;18207;32.078;34.818;2024-01-30T10:18:56;1.05;;;0.65;;
23617;SDS011;18207;32.078;34.818;2024-01-30T10:21:26;1.08;;;0.70;;
23617;SDS011;18207;32.078;34.818;2024-01-30T10:24:05;1.08;;;0.50;;
23617;SDS011;18207;32.078;34.818;2024-01-30T10:26:37;1.02;;;0.75;;
23617;SDS011;18207;32.078;34.818;2024-01-30T10:29:09;0.60;;;0.45;;
23617;SDS011;18207;32.078;34.818;2024-01-30T10:31:39;0.73;;;0.70;;
23617;SDS011;18207;32.078;34.818;2024-01-30T10:34:09;1.23;;;0.57;;
23617;SDS011;18207;32.078;34.818;2024-01-30T10:36:49;0.52;;;0.40;;
23617;SDS011;18207;32.078;34.818;2024-01-30T10:39:30;2.00;;;0.47;;
23617;SDS011;18207;32.078;34.818;2024-01-30T10:42:07;0.98;;;0.50;;
23617;SDS011;18207;32.078;34.818;2024-01-30T10:44:44;0.38;;;0.38;;
23617;SDS011;18207;32.078;34.818;2024-01-30T10:47:26;0.80;;;0.55;;
23617;SDS011;18207;32.078;34.818;2024-01-30T10:49:57;1.63;;;0.60;;
23617;SDS011;18207;32.078;34.818;2024-01-30T10:52:30;0.90;;;0.43;;
23617;SDS011;18207;32.078;34.818;2024-01-30T10:55:03;1.45;;;0.55;;
23617;SDS011;18207;32.078;34.818;2024-01-30T10:57:35;1.00;;;0.50;;
23617;SDS011;18207;32.078;34.818;2024-01-30T11:00:06;0.65;;;0.47;;
23617;SDS011;18207;32.078;34.818;2024-01-30T11:02:40;0.60;;;0.40;;
23617;SDS011;18207;32.078;34.818;2024-01-30T11:05:12;0.85;;;0.52;;
23617;SDS011;18207;32.078;34.818;2024-01-30T11:07:43;0.85;;;0.60;;
23617;SDS011;18207;32.078;34.818;2024-01-30T11:10:14;0.45;;;0.45;;
23617;SDS011;18207;32.078;34.818;2024-01-30T11:12:45;1.17;;;0.40;;
23617;SDS011;18207;32.078;34.818;2024-01-30T11:15:18;0.90;;;0.40;;
23617;SDS011;18207;32.078;34.818;2024-01-30T11:17:50;0.68;;;0.47;;
23617;SDS011;18207;32.078;34.818;2024-01-30T11:20:21;0.55;;;0.43;;
23617;SDS011;18207;32.078;34.818;2024-01-30T11:22:56;0.50;;;0.50;;
23617;SDS011;18207;32.078;34.818;2024-01-30T11:25:30;1.50;;;0.68;;
23617;SDS011;18207;32.078;34.818;2024-01-30T11:28:01;1.02;;;0.60;;
23617;SDS011;18207;32.078;34.818;2024-01-30T11:30:31;0.38;;;0.30;;
23617;SDS011;18207;32.078;34.818;2024-01-30T11:33:04;0.77;;;0.55;;
23617;SDS011;18207;32.078;34.818;2024-01-30T11:35:36;0.85;;;0.60;;
23617;SDS011;18207;32.078;34.818;2024-01-30T11:38:07;1.65;;;0.50;;
23617;SDS011;18207;32.078;34.818;2024-01-30T11:40:40;0.63;;;0.40;;
23617;SDS011;18207;32.078;34.818;2024-01-30T11:43:10;0.45;;;0.40;;
23617;SDS011;18207;32.078;34.818;2024-01-30T11:45:40;1.20;;;0.63;;
23617;SDS011;18207;32.078;34.818;2024-01-30T11:48:11;0.68;;;0.50;;
23617;SDS011;18207;32.078;34.818;2024-01-30T11:50:41;0.82;;;0.40;;
23617;SDS011;18207;32.078;34.818;2024-01-30T11:53:12;0.40;;;0.40;;
23617;SDS011;18207;32.078;34.818;2024-01-30T11:55:50;1.15;;;0.60;;
23617;SDS011;18207;32.078;34.818;2024-01-30T11:58:35;0.65;;;0.60;;
23617;SDS011;18207;32.078;34.818;2024-01-30T12:01:05;0.52;;;0.40;;
23617;SDS011;18207;32.078;34.818;2024-01-30T12:03:35;1.33;;;0.57;;
23617;SDS011;18207;32.078;34.818;2024-01-30T12:06:05;0.80;;;0.68;;
23617;SDS011;18207;32.078;34.818;2024-01-30T12:08:35;4.32;;;0.70;;
23617;SDS011;18207;32.078;34.818;2024-01-30T12:11:07;1.20;;;0.60;;
23617;SDS011;18207;32.078;34.818;2024-01-30T12:13:37;0.90;;;0.50;;
23617;SDS011;18207;32.078;34.818;2024-01-30T12:16:07;0.40;;;0.30;;
23617;SDS011;18207;32.078;34.818;2024-01-30T12:18:37;1.65;;;0.70;;
23617;SDS011;18207;32.078;34.818;2024-01-30T12:21:06;0.70;;;0.60;;
23617;SDS011;18207;32.078;34.818;2024-01-30T12:23:36;1.38;;;0.80;;
23617;SDS011;18207;32.078;34.818;2024-01-30T12:26:08;0.70;;;0.50;;
23617;SDS011;18207;32.078;34.818;2024-01-30T12:28:47;1.30;;;0.50;;
23617;SDS011;18207;32.078;34.818;2024-01-30T12:31:17;0.93;;;0.52;;
23617;SDS011;18207;32.078;34.818;2024-01-30T12:33:58;0.50;;;0.40;;
23617;SDS011;18207;32.078;34.818;2024-01-30T12:36:29;0.70;;;0.50;;
23617;SDS011;18207;32.078;34.818;2024-01-30T12:39:00;2.95;;;0.70;;
23617;SDS011;18207;32.078;34.818;2024-01-30T12:41:32;0.88;;;0.40;;
23617;SDS011;18207;32.078;34.818;2024-01-30T12:44:02;0.35;;;0.30;;
23617;SDS011;18207;32.078;34.818;2024-01-30T12:46:33;0.50;;;0.50;;
23617;SDS011;18207;32.078;34.818;2024-01-30T12:49:03;1.42;;;0.60;;
23617;SDS011;18207;32.078;34.818;2024-01-30T12:51:34;0.80;;;0.55;;
23617;SDS011;18207;32.078;34.818;2024-01-30T12:54:04;1.50;;;0.60;;
23617;SDS011;18207;32.078;34.818;2024-01-30T12:56:36;1.85;;;0.70;;
23617;SDS011;18207;32.078;34.818;2024-01-30T12:59:06;0.95;;;0.50;;
23617;SDS011;18207;32.078;34.818;2024-01-30T13:01:36;0.60;;;0.60;;
23617;SDS011;18207;32.078;34.818;2024-01-30T13:04:07;0.68;;;0.55;;
23617;SDS011;18207;32.078;34.818;2024-01-30T13:06:36;0.60;;;0.60;;
23617;SDS011;18207;32.078;34.818;2024-01-30T13:09:06;1.02;;;0.70;;
23617;SDS011;18207;32.078;34.818;2024-01-30T13:11:38;1.50;;;0.90;;
23617;SDS011;18207;32.078;34.818;2024-01-30T13:14:07;0.40;;;0.40;;
23617;SDS011;18207;32.078;34.818;2024-01-30T13:16:37;0.85;;;0.63;;
23617;SDS011;18207;32.078;34.818;2024-01-30T13:19:07;1.25;;;0.65;;
23617;SDS011;18207;32.078;34.818;2024-01-30T13:21:37;0.55;;;0.45;;
23617;SDS011;18207;32.078;34.818;2024-01-30T13:24:07;1.27;;;0.65;;
23617;SDS011;18207;32.078;34.818;2024-01-30T13:26:39;1.17;;;0.55;;
23617;SDS011;18207;32.078;34.818;2024-01-30T13:29:12;0.82;;;0.50;;
23617;SDS011;18207;32.078;34.818;2024-01-30T13:31:42;0.60;;;0.60;;
23617;SDS011;18207;32.078;34.818;2024-01-30T13:34:13;1.00;;;0.50;;
23617;SDS011;18207;32.078;34.818;2024-01-30T13:36:43;1.60;;;0.80;;
23617;SDS011;18207;32.078;34.818;2024-01-30T13:39:13;1.50;;;0.68;;
23617;SDS011;18207;32.078;34.818;2024-01-30T13:41:46;1.70;;;0.60;;
23617;SDS011;18207;32.078;34.818;2024-01-30T13:44:16;1.50;;;0.80;;
23617;SDS011;18207;32.078;34.818;2024-01-30T13:46:56;0.90;;;0.60;;
23617;SDS011;18207;32.078;34.818;2024-01-30T13:49:26;0.70;;;0.50;;
23617;SDS011;18207;32.078;34.818;2024-01-30T13:51:56;1.20;;;0.90;;
23617;SDS011;18207;32.078;34.818;2024-01-30T13:54:26;0.88;;;0.57;;
23617;SDS011;18207;32.078;34.818;2024-01-30T13:56:58;0.60;;;0.60;;
23617;SDS011;18207;32.078;34.818;2024-01-30T13:59:32;0.75;;;0.70;;
23617;SDS011;18207;32.078;34.818;2024-01-30T14:02:01;1.08;;;0.60;;
23617;SDS011;18207;32.078;34.818;2024-01-30T14:04:32;1.10;;;0.65;;
23617;SDS011;18207;32.078;34.818;2024-01-30T14:07:13;1.35;;;1.00;;
23617;SDS011;18207;32.078;34.818;2024-01-30T14:09:45;1.73;;;0.90;;
23617;SDS011;18207;32.078;34.818;2024-01-30T14:12:17;1.08;;;0.60;;
23617;SDS011;18207;32.078;34.818;2024-01-30T14:14:47;0.68;;;0.50;;
23617;SDS011;18207;32.078;34.818;2024-01-30T14:17:17;1.27;;;0.80;;
23617;SDS011;18207;32.078;34.818;2024-01-30T14:19:46;0.68;;;0.68;;
23617;SDS011;18207;32.078;34.818;2024-01-30T14:22:16;2.75;;;1.10;;
23617;SDS011;18207;32.078;34.818;2024-01-30T14:24:46;0.63;;;0.60;;
23617;SDS011;18207;32.078;34.818;2024-01-30T14:27:15;1.70;;;0.70;;
23617;SDS011;18207;32.078;34.818;2024-01-30T14:29:47;0.70;;;0.70;;
23617;SDS011;18207;32.078;34.818;2024-01-30T14:32:16;2.53;;;0.98;;
23617;SDS011;18207;32.078;34.818;2024-01-30T14:34:46;1.40;;;0.60;;
23617;SDS011;18207;32.078;34.818;2024-01-30T14:37:16;0.57;;;0.50;;
23617;SDS011;18207;32.078;34.818;2024-01-30T14:39:46;0.68;;;0.55;;
23617;SDS011;18207;32.078;34.818;2024-01-30T14:42:17;0.90;;;0.73;;
23617;SDS011;18207;32.078;34.818;2024-01-30T14:44:47;1.52;;;0.82;;
23617;SDS011;18207;32.078;34.818;2024-01-30T14:47:20;0.77;;;0.60;;
23617;SDS011;18207;32.078;34.818;2024-01-30T14:49:49;1.20;;;0.50;;
23617;SDS011;18207;32.078;34.818;2024-01-30T14:52:20;1.00;;;0.50;;
23617;SDS011;18207;32.078;34.818;2024-01-30T14:54:49;0.57;;;0.57;;